Nearby METAR Reports

 

KRDU - Raleigh/Durham, North Carolina, USA
Distance from station: NNW 20mi, 33km
Updated: Sat, 16-Feb-2019 10:51am EST
Overcast
Overcast
 Wind from NNE
Wind: NNE 14 mph , 22 km/h
Temperature: 43°F , 6°C
Wind Chill: 36°F , 2°C
Dew Point: 39°F , 4°C
Humidity: 87%
Barometer: 29.83 inHg , 1010.2 hPa
Clouds: Overcast
Visibility: 10 miles , 16 km
Cloud details: Mostly cloudy 1000 ft
Overcast 1800 ft
2019/02/16 15:51 KRDU 161551Z 03012KT 10SM BKN010 OVC018 06/04 A2983 RMK AO2 PK WND 05029/1501 RAE35 SLP099 P0006 T00560039
KJNX - Smithfield Johns, North Carolina, USA
Distance from station: ESE 17mi, 28km
Updated: Sat, 16-Feb-2019 11:35am EST
Light rain, Overcast
Light rain, Overcast
 Wind from NNE
Wind: NNE 23 mph , 37 km/h, Gust: 30 mph , 48 km/h
Temperature: 45°F , 7°C
Wind Chill: 36°F , 2°C
Dew Point: 45°F , 7°C
Humidity: 100%
Barometer: 29.79 inHg , 1008.8 hPa
Summary: Light rain
Clouds: Overcast
Visibility: 4 miles , 6 km
Cloud details: Mostly cloudy 900 ft
Overcast 1300 ft
2019/02/16 16:35 KJNX 161635Z AUTO 03020G26KT 4SM -RA BKN009 OVC013 07/07 A2979 RMK AO2 P0002
 
KLHZ - Louisburg/Frankl, North Carolina, USA
Distance from station: NE 33mi, 54km
Updated: Sat, 16-Feb-2019 11:20am EST
Overcast
Overcast
 Wind from NE
Wind: NE 16 mph , 26 km/h, Gust: 24 mph , 39 km/h
Temperature: 39°F , 4°C
Wind Chill: 30°F , -1°C
Dew Point: 36°F , 2°C
Humidity: 87%
Barometer: 29.88 inHg , 1011.9 hPa
Clouds: Overcast
Visibility: 10 miles , 16 km
Cloud details: Overcast 2800 ft
2019/02/16 16:20 KLHZ 161620Z AUTO 04014G21KT 10SM OVC028 04/02 A2988 RMK AO2
KPOB - Pope Afb, North Carolina, USA
Distance from station: SSW 37mi, 59km
Updated: Sat, 16-Feb-2019 11:06am EST
Light rain, Mist, Overcast
Light rain, Mist, Overcast
 Wind from NNE
Wind: NNE 3 mph , 6 km/h
Temperature: 57°F , 14°C
Dew Point: 55°F , 13°C
Humidity: 94%
Barometer: 29.73 inHg , 1006.8 hPa
Summary: Light rain, Mist
Clouds: Overcast
Visibility: 4 miles , 6 km
Cloud details: Overcast 300 ft
2019/02/16 16:06 KPOB 161606Z AUTO 02003KT 4SM -RA BR OVC003 14/13 A2973 RMK AO2 SLP070 $
 
KFBG - Fort Bragg/Simmo, North Carolina, USA
Distance from station: SSW 37mi, 60km
Updated: Sat, 16-Feb-2019 11:16am EST
Light rain, Mist, Overcast
Light rain, Mist, Overcast
 Wind from NNW
Wind: NNW 6 mph , 9 km/h
Temperature: 55°F , 13°C
Dew Point: 55°F , 13°C
Humidity: 100%
Barometer: 29.72 inHg , 1006.4 hPa
Summary: Light rain, Mist
Clouds: Overcast
Visibility: 3 miles , 5 km
Cloud details: Mostly cloudy 300 ft
Overcast 1800 ft
2019/02/16 16:16 KFBG 161616Z AUTO 34005KT 3SM -RA BR BKN003 OVC018 13/13 A2972 RMK AO2 BKN V OVC SLP066 $
KSCR - Siler City, North Carolina, USA
Distance from station: W 47mi, 75km
Updated: Sat, 16-Feb-2019 11:20am EST
Light drizzle, Overcast
Light drizzle, Overcast
 Wind from NNE
Wind: NNE 12 mph , 19 km/h, Gust: 18 mph , 30 km/h
Temperature: 45°F , 7°C
Wind Chill: 39°F , 4°C
Dew Point: 43°F , 6°C
Humidity: 93%
Barometer: 29.80 inHg , 1009.1 hPa
Summary: Light Drizzle
Clouds: Overcast
Visibility: 10 miles , 16 km
Cloud details: Overcast 700 ft
2019/02/16 16:20 KSCR 161620Z AUTO 02010G16KT 10SM -DZ OVC007 07/06 A2980 RMK AO2 T00660060
 
KTDF - Roxboro Person, North Carolina, USA
Distance from station: NNW 49mi, 79km
Updated: Sat, 16-Feb-2019 11:15am EST
Light rain, Overcast
Light rain, Overcast
 Wind from NE
Wind: NE 14 mph , 22 km/h
Temperature: 37°F , 3°C
Wind Chill: 28°F , -2°C
Dew Point: 37°F , 3°C
Humidity: 100%
Barometer: 29.87 inHg , 1011.5 hPa
Summary: Light rain
Clouds: Overcast
Visibility: 5 miles , 8 km
Cloud details: Overcast 600 ft
2019/02/16 16:15 KTDF 161615Z AUTO 05012KT 5SM -RA OVC006 03/03 A2987 RMK AO2
KSOP - Southern Pines, North Carolina, USA
Distance from station: SW 50mi, 80km
Updated: Sat, 16-Feb-2019 11:21am EST
Light rain, Overcast
Light rain, Overcast
 Wind from NNE
Wind: NNE 7 mph , 11 km/h, Gust: 17 mph , 28 km/h
Temperature: 48°F , 9°C
Wind Chill: 45°F , 7°C
Dew Point: 48°F , 9°C
Humidity: 100%
Barometer: 29.76 inHg , 1007.8 hPa
Summary: Light rain
Clouds: Overcast
Visibility: 8 miles , 13 km
Cloud details: Overcast 500 ft
2019/02/16 16:21 KSOP 161621Z AUTO 02006G15KT 8SM -RA OVC005 09/09 A2976 RMK AO2 CIG 003V008 P0000
 
KHNZ - Henderson/Oxford, North Carolina, USA
Distance from station: N 52mi, 84km
Updated: Sat, 16-Feb-2019 11:25am EST
Rain, Overcast
Rain, Overcast
 Wind from NE
Wind: NE 14 mph , 22 km/h, Gust: 22 mph , 35 km/h
Temperature: 36°F , 2°C
Wind Chill: 27°F , -3°C
Dew Point: 34°F , 1°C
Humidity: 93%
Barometer: 29.86 inHg , 1011.2 hPa
Summary: Rain
Clouds: Overcast
Visibility: 2 miles , 3 km
Cloud details: Overcast 900 ft
2019/02/16 16:25 KHNZ 161625Z AUTO 04012G19KT 2SM RA OVC009 02/01 A2986 RMK AO2 P0005 T00180007
KBUY - Burlington, North Carolina, USA
Distance from station: NW 54mi, 86km
Updated: Sat, 16-Feb-2019 10:54am EST
Overcast
Overcast
 Wind from NNE
Wind: NNE 14 mph , 22 km/h, Gust: 25 mph , 41 km/h
Temperature: 45°F , 7°C
Wind Chill: 39°F , 4°C
Dew Point: 41°F , 5°C
Humidity: 87%
Barometer: 29.81 inHg , 1009.5 hPa
Clouds: Overcast
Visibility: 10 miles , 16 km
Cloud details: Mostly cloudy 1000 ft
Overcast 3100 ft
2019/02/16 15:54 KBUY 161554Z AUTO 02012G22KT 10SM BKN010 OVC031 07/05 A2981 RMK AO2 RAE43 SLP094 P0001 T00720050
 
KTNB - Boone Watauga Ct, North Carolina, USA
Distance from station: SE 2mi, 3km
Updated: Sat, 16-Feb-2019 11:15am EST
Partly cloudy
Partly cloudy
 Wind from calm
Wind: Calm
Temperature: 46°F , 8°C
Dew Point: 41°F , 5°C
Humidity: 82%
Barometer: 29.78 inHg , 1008.5 hPa
Clouds: Partly cloudy
Visibility: 10 miles , 16 km
Cloud details: Partly cloudy 4300 ft
2019/02/16 16:15 KTNB 161615Z AUTO 00000KT 10SM SCT043 08/05 A2978 RMK AO2 T00800046
KGEV - Jefferson, North Carolina, USA
Distance from station: NE 21mi, 33km
Updated: Sat, 16-Feb-2019 11:40am EST
Overcast
Overcast
 Wind from N
Wind: N 8 mph , 13 km/h
Temperature: 39°F , 4°C
Wind Chill: 33°F , 1°C
Dew Point: 37°F , 3°C
Humidity: 93%
Barometer: 29.80 inHg , 1009.1 hPa
Clouds: Overcast
Visibility: 10 miles , 16 km
Cloud details: Overcast 600 ft
2019/02/16 16:40 KGEV 161640Z AUTO 35007KT 10SM OVC006 04/03 A2980 RMK AO2 T00420029
 
KFQD - Rutherfordton, North Carolina, USA
Distance from station: SSW 57mi, 92km
Updated: Sat, 16-Feb-2019 11:20am EST
Overcast
Overcast
 Wind from ESE
Wind: ESE 6 mph , 9 km/h
Temperature: 54°F , 12°C
Dew Point: 48°F , 9°C
Humidity: 82%
Barometer: 29.79 inHg , 1008.8 hPa
Clouds: Overcast
Visibility: 10 miles , 16 km
Cloud details: Mostly cloudy 1700 ft
Mostly cloudy 2500 ft
Overcast 4500 ft
2019/02/16 16:20 KFQD 161620Z AUTO 12005KT 10SM BKN017 BKN025 OVC045 12/09 A2979 RMK AO2
KAVL - Asheville, North Carolina, USA
Distance from station: SW 72mi, 117km
Updated: Sat, 16-Feb-2019 10:54am EST
Clear
Clear
 Wind from N
Wind: N 9 mph , 15 km/h
Temperature: 54°F , 12°C
Dew Point: 43°F , 6°C
Humidity: 67%
Barometer: 29.77 inHg , 1008.1 hPa
Clouds: Clear
Visibility: 10 miles , 16 km
2019/02/16 15:54 KAVL 161554Z 36008KT 10SM CLR 12/06 A2977 RMK AO2 SLP072 T01220061 $